Time;durP1;ratioP1;P1;durP2;ratioP2;P2;SDS_P1;SDS_P2;PMS_P1;PMS_P2;Temp;Humidity;BMP_temperature;BMP_pressure;BME280_temperature;BME280_humidity;BME280_pressure;Samples;Min_cycle;Max_cycle;Signal;HPM_P1;HPM_P2
2023/12/28 00:01:45;;;;;;;4.17;1.93;;;;;;;;;;5076339;28;20190;-49
2023/12/28 00:04:14;;;;;;;2.10;1.83;;;;;;;;;;5075962;28;20183;-54
2023/12/28 00:06:41;;;;;;;2.43;1.50;;;;;;;;;;5076016;28;20291;-50
2023/12/28 00:09:09;;;;;;;1.70;1.57;;;;;;;;;;5076474;28;20173;-56
2023/12/28 00:11:36;;;;;;;2.70;1.50;;;;;;;;;;5076347;28;20471;-52
2023/12/28 00:14:05;;;;;;;3.67;1.63;;;;;;;;;;5075945;28;20168;-55
2023/12/28 00:16:32;;;;;;;2.13;1.33;;;;;;;;;;5075148;28;20238;-56
2023/12/28 00:18:58;;;;;;;4.90;1.67;;;;;;;;;;5074397;28;20164;-55
2023/12/28 00:21:26;;;;;;;1.47;1.37;;;;;;;;;;5075692;28;20535;-57
2023/12/28 00:23:54;;;;;;;3.73;1.70;;;;;;;;;;5074422;28;20685;-53
2023/12/28 00:26:21;;;;;;;2.03;1.63;;;;;;;;;;5074812;28;20536;-51
2023/12/28 00:28:48;;;;;;;3.67;1.47;;;;;;;;;;5074558;28;20226;-55
2023/12/28 00:31:14;;;;;;;6.17;1.90;;;;;;;;;;5074237;28;20704;-56
2023/12/28 00:33:40;;;;;;;3.07;1.53;;;;;;;;;;5073622;28;20169;-56
2023/12/28 00:36:07;;;;;;;2.53;1.40;;;;;;;;;;5074203;28;20173;-51
2023/12/28 00:38:33;;;;;;;6.10;1.77;;;;;;;;;;5074194;28;20666;-55
2023/12/28 00:40:59;;;;;;;2.03;1.47;;;;;;;;;;5074620;28;20233;-51
2023/12/28 00:43:27;;;;;;;3.27;1.60;;;;;;;;;;5074656;28;20180;-50
2023/12/28 00:45:54;;;;;;;2.97;1.70;;;;;;;;;;5074354;28;20221;-52
2023/12/28 00:48:20;;;;;;;6.03;2.03;;;;;;;;;;5075394;28;20180;-53
2023/12/28 00:50:47;;;;;;;3.87;1.90;;;;;;;;;;5074911;28;20267;-54
2023/12/28 00:53:15;;;;;;;2.73;1.90;;;;;;;;;;5074868;28;20180;-52
2023/12/28 00:55:41;;;;;;;2.73;1.93;;;;;;;;;;5074439;28;20594;-53
2023/12/28 00:58:06;;;;;;;5.27;2.50;;;;;;;;;;5076415;28;20662;-59
2023/12/28 01:00:33;;;;;;;3.67;2.20;;;;;;;;;;5075463;28;20176;-55
2023/12/28 01:03:01;;;;;;;2.63;2.43;;;;;;;;;;5075953;28;20281;-57
2023/12/28 01:05:28;;;;;;;3.97;2.00;;;;;;;;;;5075535;28;20316;-53
2023/12/28 01:07:55;;;;;;;4.07;1.90;;;;;;;;;;5075049;28;20263;-52
2023/12/28 01:10:21;;;;;;;4.33;1.70;;;;;;;;;;5074952;28;20559;-53
2023/12/28 01:12:49;;;;;;;3.60;2.20;;;;;;;;;;5074448;28;20173;-57
2023/12/28 01:15:17;;;;;;;4.07;2.10;;;;;;;;;;5074571;28;20184;-54
2023/12/28 01:17:43;;;;;;;4.33;1.90;;;;;;;;;;5074237;28;20199;-53
2023/12/28 01:20:10;;;;;;;2.23;1.57;;;;;;;;;;5074149;28;20525;-56
2023/12/28 01:22:37;;;;;;;3.20;2.17;;;;;;;;;;5073882;28;20173;-56
2023/12/28 01:25:03;;;;;;;3.23;1.70;;;;;;;;;;5074444;28;20238;-51
2023/12/28 01:27:31;;;;;;;3.03;1.93;;;;;;;;;;5074571;28;20165;-55
2023/12/28 01:29:58;;;;;;;4.47;1.50;;;;;;;;;;5074511;28;20165;-57
2023/12/28 01:32:24;;;;;;;5.70;2.47;;;;;;;;;;5074417;28;20164;-56
2023/12/28 01:34:51;;;;;;;3.70;1.87;;;;;;;;;;5075183;28;20193;-49
2023/12/28 01:37:17;;;;;;;3.50;1.83;;;;;;;;;;5074354;28;20464;-54
2023/12/28 01:39:43;;;;;;;4.83;2.07;;;;;;;;;;5074549;28;20172;-53
2023/12/28 01:42:10;;;;;;;3.57;1.93;;;;;;;;;;5074084;28;20180;-52
2023/12/28 01:44:36;;;;;;;4.40;2.40;;;;;;;;;;5074766;28;20211;-51
2023/12/28 01:47:04;;;;;;;3.90;1.83;;;;;;;;;;5074616;28;20173;-56
2023/12/28 01:49:30;;;;;;;4.93;1.97;;;;;;;;;;5075157;28;20582;-55
2023/12/28 01:51:57;;;;;;;3.03;1.70;;;;;;;;;;5076229;28;20277;-50
2023/12/28 01:54:23;;;;;;;2.50;1.97;;;;;;;;;;5061232;28;20462;-51
2023/12/28 01:56:50;;;;;;;3.77;2.10;;;;;;;;;;5077278;28;20721;-54
2023/12/28 01:59:18;;;;;;;3.60;1.73;;;;;;;;;;5076984;28;20208;-54
2023/12/28 02:01:44;;;;;;;3.47;1.90;;;;;;;;;;5074366;28;20231;-54
2023/12/28 02:04:12;;;;;;;4.10;2.30;;;;;;;;;;5075108;28;20183;-53
2023/12/28 02:06:38;;;;;;;4.10;2.20;;;;;;;;;;5077408;28;20236;-51
2023/12/28 02:09:04;;;;;;;4.10;2.20;;;;;;;;;;5077985;28;20169;-54
2023/12/28 02:11:30;;;;;;;5.87;2.30;;;;;;;;;;5078640;28;20181;-52
2023/12/28 02:13:56;;;;;;;5.53;2.23;;;;;;;;;;5078463;28;20165;-52
2023/12/28 02:16:39;;;;;;;2.60;2.37;;;;;;;;;;5079829;28;20169;-52
2023/12/28 02:19:15;;;;;;;4.80;2.03;;;;;;;;;;5078960;28;20176;-56
2023/12/28 02:21:41;;;;;;;4.40;2.73;;;;;;;;;;5077479;28;20279;-54
2023/12/28 02:24:07;;;;;;;8.40;2.13;;;;;;;;;;5077702;28;20275;-50
2023/12/28 02:26:33;;;;;;;7.37;2.47;;;;;;;;;;5077987;28;20173;-53
2023/12/28 02:29:00;;;;;;;3.43;2.23;;;;;;;;;;5078307;28;20700;-54
2023/12/28 02:31:32;;;;;;;2.30;2.10;;;;;;;;;;5078030;28;20242;-52
2023/12/28 02:33:59;;;;;;;4.07;2.73;;;;;;;;;;5078924;28;20180;-53
2023/12/28 02:36:27;;;;;;;2.47;1.93;;;;;;;;;;5077967;28;20237;-52
2023/12/28 02:38:55;;;;;;;2.60;2.40;;;;;;;;;;5077881;28;20176;-52
2023/12/28 02:41:21;;;;;;;6.20;2.00;;;;;;;;;;5077560;28;20177;-55
2023/12/28 02:43:48;;;;;;;7.03;2.40;;;;;;;;;;5077315;28;20173;-56
2023/12/28 02:46:14;;;;;;;6.03;2.37;;;;;;;;;;5077544;28;20205;-53
2023/12/28 02:48:41;;;;;;;3.10;2.17;;;;;;;;;;5078527;28;20252;-54
2023/12/28 02:51:07;;;;;;;7.80;2.90;;;;;;;;;;5077834;28;20661;-55
2023/12/28 02:53:33;;;;;;;4.43;2.40;;;;;;;;;;5077872;28;20169;-51
2023/12/28 02:55:58;;;;;;;4.20;2.30;;;;;;;;;;5077346;28;20227;-51
2023/12/28 02:58:25;;;;;;;2.60;2.20;;;;;;;;;;5077551;28;20173;-52
2023/12/28 03:00:50;;;;;;;3.03;2.13;;;;;;;;;;5076714;28;20183;-50
2023/12/28 03:03:17;;;;;;;5.07;2.47;;;;;;;;;;5075637;28;20177;-55
2023/12/28 03:05:43;;;;;;;2.93;2.50;;;;;;;;;;5076581;28;20232;-55
2023/12/28 03:08:08;;;;;;;2.83;2.33;;;;;;;;;;5075644;28;20329;-53
2023/12/28 03:10:34;;;;;;;3.53;2.50;;;;;;;;;;5073141;28;20540;-53
2023/12/28 03:13:00;;;;;;;3.87;3.17;;;;;;;;;;5072729;28;20202;-50
2023/12/28 03:15:26;;;;;;;5.53;2.53;;;;;;;;;;5075935;28;20500;-53
2023/12/28 03:17:52;;;;;;;5.20;2.70;;;;;;;;;;5077236;28;20555;-52
2023/12/28 03:20:18;;;;;;;5.63;2.50;;;;;;;;;;5077833;28;20157;-51
2023/12/28 03:22:44;;;;;;;5.60;2.47;;;;;;;;;;5076562;28;20181;-52
2023/12/28 03:25:10;;;;;;;7.30;2.97;;;;;;;;;;5077184;28;20294;-54
2023/12/28 03:27:37;;;;;;;4.97;2.50;;;;;;;;;;5076963;28;20263;-53
2023/12/28 03:30:03;;;;;;;2.90;2.20;;;;;;;;;;5077422;28;20577;-56
2023/12/28 03:32:29;;;;;;;6.83;2.73;;;;;;;;;;5077622;28;20204;-50
2023/12/28 03:34:55;;;;;;;3.77;2.60;;;;;;;;;;5077231;28;20466;-52
2023/12/28 03:37:21;;;;;;;3.43;2.13;;;;;;;;;;5076587;28;20281;-54
2023/12/28 03:39:48;;;;;;;4.37;2.20;;;;;;;;;;5077387;28;20177;-54
2023/12/28 03:42:14;;;;;;;3.43;2.03;;;;;;;;;;5077305;28;20183;-53
2023/12/28 03:44:40;;;;;;;8.13;2.40;;;;;;;;;;5076864;28;20740;-52
2023/12/28 03:47:07;;;;;;;4.90;2.70;;;;;;;;;;5074807;28;20172;-51
2023/12/28 03:49:33;;;;;;;5.67;3.37;;;;;;;;;;5071465;28;20451;-55
2023/12/28 03:51:59;;;;;;;4.77;2.33;;;;;;;;;;5072214;28;20185;-54
2023/12/28 03:54:25;;;;;;;5.57;2.47;;;;;;;;;;5072558;28;20179;-52
2023/12/28 03:56:51;;;;;;;5.70;2.40;;;;;;;;;;5072498;28;20173;-53
2023/12/28 03:59:17;;;;;;;3.60;2.80;;;;;;;;;;5073343;28;20363;-54
2023/12/28 04:01:44;;;;;;;5.00;2.40;;;;;;;;;;5073024;28;20161;-53
2023/12/28 04:04:10;;;;;;;3.10;2.43;;;;;;;;;;5071586;28;20494;-51
2023/12/28 04:06:37;;;;;;;6.20;2.30;;;;;;;;;;5071945;28;20251;-53
2023/12/28 04:09:03;;;;;;;5.77;2.40;;;;;;;;;;5070923;28;20183;-52
2023/12/28 04:11:29;;;;;;;3.97;2.63;;;;;;;;;;5075271;28;20263;-55
2023/12/28 04:13:55;;;;;;;5.87;2.37;;;;;;;;;;5072603;28;20525;-55
2023/12/28 04:16:22;;;;;;;3.17;2.17;;;;;;;;;;5075453;28;20545;-56
2023/12/28 04:18:48;;;;;;;6.77;2.60;;;;;;;;;;5075571;28;20183;-53
2023/12/28 04:21:14;;;;;;;5.83;2.50;;;;;;;;;;5076332;28;20181;-53
2023/12/28 04:23:40;;;;;;;4.40;2.23;;;;;;;;;;5077096;28;20237;-53
2023/12/28 04:26:07;;;;;;;5.73;2.47;;;;;;;;;;5076629;28;20208;-53
2023/12/28 04:28:34;;;;;;;6.20;2.57;;;;;;;;;;5077219;28;20168;-52
2023/12/28 04:31:02;;;;;;;4.83;2.13;;;;;;;;;;5076153;28;20176;-54
2023/12/28 04:33:28;;;;;;;2.53;1.83;;;;;;;;;;5077218;28;20153;-52
2023/12/28 04:35:54;;;;;;;5.03;2.70;;;;;;;;;;5076642;28;20172;-55
2023/12/28 04:38:20;;;;;;;5.63;2.67;;;;;;;;;;5075981;28;20246;-48
2023/12/28 04:40:46;;;;;;;2.40;2.20;;;;;;;;;;5076256;28;20204;-53
2023/12/28 04:43:12;;;;;;;8.93;2.60;;;;;;;;;;5076103;28;20554;-50
2023/12/28 04:45:38;;;;;;;3.37;2.47;;;;;;;;;;5075628;28;20728;-53
2023/12/28 04:48:04;;;;;;;5.33;2.20;;;;;;;;;;5075142;28;20169;-52
2023/12/28 04:50:30;;;;;;;3.53;2.20;;;;;;;;;;5075608;28;20607;-51
2023/12/28 04:52:56;;;;;;;5.33;2.50;;;;;;;;;;5075019;28;20176;-47
2023/12/28 04:55:24;;;;;;;4.30;2.20;;;;;;;;;;5075821;28;20180;-53
2023/12/28 04:57:50;;;;;;;4.50;2.23;;;;;;;;;;5075762;28;20568;-51
2023/12/28 05:00:22;;;;;;;5.50;2.40;;;;;;;;;;5075861;28;20193;-52
2023/12/28 05:02:49;;;;;;;6.87;2.70;;;;;;;;;;5076464;28;20177;-52
2023/12/28 05:05:15;;;;;;;4.87;2.67;;;;;;;;;;5075360;28;20246;-49
2023/12/28 05:07:41;;;;;;;4.17;2.07;;;;;;;;;;5076053;28;20212;-49
2023/12/28 05:10:07;;;;;;;6.07;2.60;;;;;;;;;;5074987;28;20509;-52
2023/12/28 05:12:33;;;;;;;7.27;2.80;;;;;;;;;;5075856;28;20169;-49
2023/12/28 05:14:59;;;;;;;4.67;2.57;;;;;;;;;;5076502;28;20186;-53
2023/12/28 05:17:25;;;;;;;5.73;2.43;;;;;;;;;;5076270;28;20172;-51
2023/12/28 05:19:51;;;;;;;5.27;2.40;;;;;;;;;;5075434;28;20169;-48
2023/12/28 05:22:17;;;;;;;3.87;2.37;;;;;;;;;;5075321;28;20191;-49
2023/12/28 05:24:43;;;;;;;2.47;2.27;;;;;;;;;;5075299;28;20215;-50
2023/12/28 05:27:11;;;;;;;4.90;2.63;;;;;;;;;;5077637;28;20184;-50
2023/12/28 05:29:37;;;;;;;5.23;2.47;;;;;;;;;;5080366;28;20267;-53
2023/12/28 05:32:03;;;;;;;5.73;2.50;;;;;;;;;;5080271;28;20207;-53
2023/12/28 05:34:29;;;;;;;3.53;2.27;;;;;;;;;;5080176;28;20168;-51
2023/12/28 05:36:55;;;;;;;6.27;2.60;;;;;;;;;;5080010;28;20208;-53
2023/12/28 05:39:21;;;;;;;13.83;2.57;;;;;;;;;;5079147;28;20172;-50
2023/12/28 05:41:47;;;;;;;6.50;2.80;;;;;;;;;;5079179;28;20233;-51
2023/12/28 05:44:14;;;;;;;3.03;2.03;;;;;;;;;;5079529;28;20738;-50
2023/12/28 05:46:40;;;;;;;4.40;2.33;;;;;;;;;;5080077;28;20264;-55
2023/12/28 05:49:06;;;;;;;5.70;2.20;;;;;;;;;;5080330;28;20236;-52
2023/12/28 05:51:39;;;;;;;7.90;3.07;;;;;;;;;;5079017;28;20208;-55
2023/12/28 05:54:05;;;;;;;3.70;2.53;;;;;;;;;;5079938;28;20160;-53
2023/12/28 05:56:31;;;;;;;6.20;2.50;;;;;;;;;;5079594;28;20184;-52
2023/12/28 05:58:57;;;;;;;5.60;2.40;;;;;;;;;;5078955;28;20176;-56
2023/12/28 06:01:23;;;;;;;4.97;2.50;;;;;;;;;;5079745;28;20179;-53
2023/12/28 06:03:50;;;;;;;4.33;2.33;;;;;;;;;;5079287;28;20176;-56
2023/12/28 06:06:16;;;;;;;3.63;2.33;;;;;;;;;;5079810;28;20228;-52
2023/12/28 06:08:42;;;;;;;4.43;2.57;;;;;;;;;;5079865;28;20706;-53
2023/12/28 06:11:08;;;;;;;6.50;2.73;;;;;;;;;;5079074;28;20165;-50
2023/12/28 06:13:34;;;;;;;6.40;2.60;;;;;;;;;;5078458;28;20450;-50
2023/12/28 06:16:00;;;;;;;9.80;2.60;;;;;;;;;;5079111;28;20263;-55
2023/12/28 06:18:26;;;;;;;6.07;2.57;;;;;;;;;;5077815;28;20268;-51
2023/12/28 06:20:52;;;;;;;6.40;2.13;;;;;;;;;;5078450;28;20197;-54
2023/12/28 06:23:18;;;;;;;2.23;1.97;;;;;;;;;;5079280;28;20246;-52
2023/12/28 06:25:44;;;;;;;7.13;2.50;;;;;;;;;;5077291;28;20205;-53
2023/12/28 06:28:10;;;;;;;4.70;2.60;;;;;;;;;;5077021;28;20222;-54
2023/12/28 06:30:36;;;;;;;5.97;2.43;;;;;;;;;;5078094;28;20272;-53
2023/12/28 06:33:03;;;;;;;6.07;2.20;;;;;;;;;;5078595;28;20196;-54
2023/12/28 06:35:28;;;;;;;10.10;3.00;;;;;;;;;;5078162;28;20510;-52
2023/12/28 06:37:55;;;;;;;4.17;1.80;;;;;;;;;;5078449;28;20184;-54
2023/12/28 06:40:21;;;;;;;6.30;2.60;;;;;;;;;;5079347;28;20261;-53
2023/12/28 06:42:47;;;;;;;4.60;1.97;;;;;;;;;;5077734;28;20196;-53
2023/12/28 06:45:13;;;;;;;6.03;2.30;;;;;;;;;;5074596;28;20212;-52
2023/12/28 06:47:39;;;;;;;6.37;2.77;;;;;;;;;;5074736;28;20164;-54
2023/12/28 06:50:05;;;;;;;8.40;2.93;;;;;;;;;;5074646;28;20372;-54
2023/12/28 06:52:31;;;;;;;4.53;1.93;;;;;;;;;;5073998;28;20204;-51
2023/12/28 06:54:57;;;;;;;9.83;2.33;;;;;;;;;;5072641;28;20176;-52
2023/12/28 06:57:23;;;;;;;4.53;2.00;;;;;;;;;;5071881;28;20322;-54
2023/12/28 06:59:49;;;;;;;4.27;2.23;;;;;;;;;;5071515;28;20173;-49
2023/12/28 07:02:15;;;;;;;5.53;2.20;;;;;;;;;;5071674;28;20168;-53
2023/12/28 07:04:42;;;;;;;5.50;2.00;;;;;;;;;;5072126;28;20208;-50
2023/12/28 07:07:08;;;;;;;7.70;2.50;;;;;;;;;;5071737;28;20620;-55
2023/12/28 07:09:34;;;;;;;4.10;2.17;;;;;;;;;;5072671;28;20175;-52
2023/12/28 07:12:00;;;;;;;5.53;2.17;;;;;;;;;;5072204;28;20161;-55
2023/12/28 07:14:26;;;;;;;6.57;2.50;;;;;;;;;;5073570;28;20338;-56
2023/12/28 07:16:52;;;;;;;7.47;2.33;;;;;;;;;;5077458;28;20629;-54
2023/12/28 07:19:18;;;;;;;6.37;3.00;;;;;;;;;;5076658;28;20618;-53
2023/12/28 07:21:44;;;;;;;4.90;2.27;;;;;;;;;;5077390;28;20242;-55
2023/12/28 07:24:10;;;;;;;9.83;2.77;;;;;;;;;;5075143;28;20482;-51
2023/12/28 07:26:35;;;;;;;6.97;2.20;;;;;;;;;;5075859;28;20273;-52
2023/12/28 07:29:01;;;;;;;4.60;2.33;;;;;;;;;;5076306;28;20223;-53
2023/12/28 07:31:31;;;;;;;7.77;2.50;;;;;;;;;;5076828;28;20230;-53
2023/12/28 07:33:57;;;;;;;7.13;1.80;;;;;;;;;;5077562;28;20184;-57
2023/12/28 07:36:23;;;;;;;12.97;2.93;;;;;;;;;;5075770;28;20216;-56
2023/12/28 07:38:49;;;;;;;5.80;2.10;;;;;;;;;;5077255;28;20172;-52
2023/12/28 07:41:15;;;;;;;6.57;2.37;;;;;;;;;;5076439;28;20173;-52
2023/12/28 07:43:41;;;;;;;3.30;1.63;;;;;;;;;;5077049;28;20571;-53
2023/12/28 07:46:08;;;;;;;7.50;2.87;;;;;;;;;;5077301;28;20692;-52
2023/12/28 07:48:34;;;;;;;4.23;1.87;;;;;;;;;;5076174;28;20181;-55
2023/12/28 07:51:07;;;;;;;18.47;2.97;;;;;;;;;;5075008;28;20198;-54
2023/12/28 07:53:33;;;;;;;6.20;2.10;;;;;;;;;;5074944;28;20165;-52
2023/12/28 07:55:59;;;;;;;7.87;3.20;;;;;;;;;;5074831;28;20267;-54
2023/12/28 07:58:25;;;;;;;9.30;2.13;;;;;;;;;;5073613;28;20177;-55
2023/12/28 08:00:52;;;;;;;13.97;2.27;;;;;;;;;;5074436;28;20183;-54
2023/12/28 08:03:19;;;;;;;6.67;1.97;;;;;;;;;;5073887;28;20203;-51
2023/12/28 08:05:45;;;;;;;8.03;2.53;;;;;;;;;;5075253;28;20228;-56
2023/12/28 08:08:13;;;;;;;8.30;1.83;;;;;;;;;;5073848;28;20203;-54
2023/12/28 08:10:40;;;;;;;3.63;1.83;;;;;;;;;;5073981;28;20708;-53
2023/12/28 08:13:06;;;;;;;5.17;2.33;;;;;;;;;;5074866;28;20161;-55
2023/12/28 08:15:33;;;;;;;5.37;2.03;;;;;;;;;;5074476;28;20183;-55
2023/12/28 08:18:00;;;;;;;8.33;1.93;;;;;;;;;;5073706;28;20263;-54
2023/12/28 08:20:26;;;;;;;3.77;1.83;;;;;;;;;;5073927;28;20246;-55
2023/12/28 08:22:52;;;;;;;10.30;2.23;;;;;;;;;;5073113;28;20173;-54
2023/12/28 08:25:19;;;;;;;7.03;1.90;;;;;;;;;;5072306;28;20204;-55
2023/12/28 08:27:45;;;;;;;6.83;2.10;;;;;;;;;;5072227;28;20263;-53
2023/12/28 08:30:12;;;;;;;5.07;2.10;;;;;;;;;;5072275;28;20267;-55
2023/12/28 08:32:40;;;;;;;4.17;2.20;;;;;;;;;;5073407;28;20172;-54
2023/12/28 08:35:07;;;;;;;8.50;2.83;;;;;;;;;;5073766;28;20179;-55
2023/12/28 08:37:34;;;;;;;3.83;2.33;;;;;;;;;;5074521;28;20191;-55
2023/12/28 08:40:00;;;;;;;12.17;2.13;;;;;;;;;;5074060;28;20278;-54
2023/12/28 08:42:26;;;;;;;6.87;2.13;;;;;;;;;;5074059;28;20231;-55
2023/12/28 08:44:53;;;;;;;11.40;3.03;;;;;;;;;;5075413;28;20205;-51
2023/12/28 08:47:19;;;;;;;5.70;1.90;;;;;;;;;;5074028;28;20173;-52
2023/12/28 08:49:46;;;;;;;8.10;2.37;;;;;;;;;;5074383;28;20473;-54
2023/12/28 08:52:13;;;;;;;7.33;2.20;;;;;;;;;;5074023;28;20183;-56
2023/12/28 08:54:40;;;;;;;6.87;1.93;;;;;;;;;;5075211;28;20169;-55
2023/12/28 08:57:07;;;;;;;6.23;2.10;;;;;;;;;;5074335;28;20565;-56
2023/12/28 08:59:37;;;;;;;7.43;1.67;;;;;;;;;;5074578;28;20234;-52
2023/12/28 09:02:04;;;;;;;10.57;1.63;;;;;;;;;;5072001;28;20180;-51
2023/12/28 09:04:33;;;;;;;7.30;2.27;;;;;;;;;;5074722;28;20176;-53
2023/12/28 09:06:59;;;;;;;10.63;2.30;;;;;;;;;;5072802;28;20263;-55
2023/12/28 09:09:25;;;;;;;10.20;2.57;;;;;;;;;;5072015;28;20622;-54
2023/12/28 09:11:50;;;;;;;5.63;2.20;;;;;;;;;;5071890;28;20495;-56
2023/12/28 09:14:18;;;;;;;6.67;2.17;;;;;;;;;;5071741;28;20475;-56
2023/12/28 09:16:44;;;;;;;13.93;2.70;;;;;;;;;;5072501;28;20181;-51
2023/12/28 09:19:11;;;;;;;9.77;2.23;;;;;;;;;;5071792;28;20264;-54
2023/12/28 09:21:39;;;;;;;5.00;1.57;;;;;;;;;;5072289;28;20189;-57
2023/12/28 09:24:05;;;;;;;3.80;1.70;;;;;;;;;;5071985;28;20275;-55
2023/12/28 09:26:32;;;;;;;6.20;2.30;;;;;;;;;;5072299;28;20308;-53
2023/12/28 09:29:00;;;;;;;7.43;2.23;;;;;;;;;;5071772;28;20187;-56
2023/12/28 09:31:27;;;;;;;10.33;2.17;;;;;;;;;;5070992;28;20179;-56
2023/12/28 09:33:53;;;;;;;4.17;1.40;;;;;;;;;;5069957;28;20223;-52
2023/12/28 09:36:19;;;;;;;5.47;2.17;;;;;;;;;;5069648;28;20207;-57
2023/12/28 09:38:48;;;;;;;12.30;2.53;;;;;;;;;;5070906;28;20256;-56
2023/12/28 09:41:14;;;;;;;10.13;2.13;;;;;;;;;;5070591;28;20169;-54
2023/12/28 09:44:02;;;;;;;6.80;2.17;;;;;;;;;;5071131;28;20181;-55
2023/12/28 09:46:28;;;;;;;4.87;2.13;;;;;;;;;;5069544;28;20414;-51
2023/12/28 09:48:56;;;;;;;5.70;1.97;;;;;;;;;;5072266;28;20290;-57
2023/12/28 09:51:22;;;;;;;6.03;2.23;;;;;;;;;;5072787;28;20646;-53
2023/12/28 09:53:48;;;;;;;5.83;2.20;;;;;;;;;;5072990;28;20234;-56
2023/12/28 09:56:16;;;;;;;7.30;1.87;;;;;;;;;;5071594;28;20177;-56
2023/12/28 09:58:44;;;;;;;6.13;1.93;;;;;;;;;;5071913;28;20216;-54
2023/12/28 10:01:14;;;;;;;10.47;2.03;;;;;;;;;;5072051;28;20187;-53
2023/12/28 10:03:40;;;;;;;12.03;2.73;;;;;;;;;;5071806;28;20747;-53
2023/12/28 10:06:08;;;;;;;4.60;1.53;;;;;;;;;;5069648;28;20233;-54
2023/12/28 10:08:35;;;;;;;8.77;2.13;;;;;;;;;;5071413;28;20727;-54
2023/12/28 10:11:02;;;;;;;7.50;2.30;;;;;;;;;;5069785;28;20682;-56
2023/12/28 10:13:30;;;;;;;6.47;2.30;;;;;;;;;;5072537;28;20180;-57
2023/12/28 10:15:59;;;;;;;6.33;2.13;;;;;;;;;;5073252;28;20160;-56
2023/12/28 10:18:27;;;;;;;7.83;2.10;;;;;;;;;;5072797;28;20176;-56
2023/12/28 10:20:55;;;;;;;8.80;2.20;;;;;;;;;;5071624;28;20181;-54
2023/12/28 10:23:24;;;;;;;11.07;2.80;;;;;;;;;;5070034;28;20187;-56
2023/12/28 10:25:53;;;;;;;6.43;1.80;;;;;;;;;;5073078;28;20261;-49
2023/12/28 10:28:19;;;;;;;9.80;1.93;;;;;;;;;;5071026;28;20172;-52
2023/12/28 10:30:47;;;;;;;7.00;2.30;;;;;;;;;;5072805;28;20568;-55
2023/12/28 10:33:15;;;;;;;5.37;1.60;;;;;;;;;;5072670;28;20179;-54
2023/12/28 10:35:43;;;;;;;11.00;2.87;;;;;;;;;;5072042;28;20172;-53
2023/12/28 10:38:11;;;;;;;10.37;1.80;;;;;;;;;;5073593;28;20212;-55
2023/12/28 10:40:39;;;;;;;4.57;1.77;;;;;;;;;;5074309;28;20576;-52
2023/12/28 10:43:09;;;;;;;8.90;2.43;;;;;;;;;;5072881;28;20587;-53
2023/12/28 10:45:35;;;;;;;6.27;2.33;;;;;;;;;;5072931;28;20496;-57
2023/12/28 10:48:10;;;;;;;4.67;1.73;;;;;;;;;;5055899;28;20276;-54
2023/12/28 10:50:46;;;;;;;10.03;2.37;;;;;;;;;;5074382;28;20172;-52
2023/12/28 10:53:31;;;;;;;10.53;1.90;;;;;;;;;;5075088;28;20169;-55
2023/12/28 10:56:17;;;;;;;7.57;2.20;;;;;;;;;;5071962;28;20631;-54
2023/12/28 10:58:51;;;;;;;8.90;2.80;;;;;;;;;;5074195;28;20264;-55
2023/12/28 11:01:33;;;;;;;11.93;2.80;;;;;;;;;;5076320;28;20545;-55
2023/12/28 11:04:08;;;;;;;10.23;2.50;;;;;;;;;;5074831;28;20202;-56
2023/12/28 11:06:35;;;;;;;10.63;2.73;;;;;;;;;;5057710;28;20266;-55
2023/12/28 11:09:01;;;;;;;11.70;2.77;;;;;;;;;;5072564;28;20191;-52
2023/12/28 11:11:27;;;;;;;8.00;2.40;;;;;;;;;;5070703;28;20254;-53
2023/12/28 11:13:56;;;;;;;10.70;2.73;;;;;;;;;;5073258;28;20549;-54
2023/12/28 11:16:23;;;;;;;13.10;2.80;;;;;;;;;;5055311;28;20172;-55
2023/12/28 11:18:50;;;;;;;9.10;2.30;;;;;;;;;;5072757;28;20173;-54
2023/12/28 11:21:17;;;;;;;8.50;2.33;;;;;;;;;;5071743;28;20479;-55
2023/12/28 11:23:44;;;;;;;10.87;2.60;;;;;;;;;;5073344;28;20472;-56
2023/12/28 11:26:19;;;;;;;12.50;2.70;;;;;;;;;;5072963;28;20220;-54
2023/12/28 11:28:45;;;;;;;7.20;2.37;;;;;;;;;;5072678;28;20173;-52
2023/12/28 11:31:13;;;;;;;12.73;2.83;;;;;;;;;;5072464;28;20168;-52
2023/12/28 11:33:53;;;;;;;12.57;2.87;;;;;;;;;;5073060;28;20161;-53
2023/12/28 11:36:27;;;;;;;9.80;2.70;;;;;;;;;;5071918;28;20173;-56
2023/12/28 11:38:54;;;;;;;11.73;3.17;;;;;;;;;;5071855;28;20177;-55
2023/12/28 11:41:26;;;;;;;8.83;2.57;;;;;;;;;;5072276;28;20173;-55
2023/12/28 11:43:52;;;;;;;14.73;3.67;;;;;;;;;;5071868;28;20177;-51
2023/12/28 11:46:19;;;;;;;16.10;4.10;;;;;;;;;;5072963;28;20216;-53
2023/12/28 11:48:49;;;;;;;16.03;3.20;;;;;;;;;;5071545;28;20208;-53
2023/12/28 11:51:17;;;;;;;11.43;2.97;;;;;;;;;;5071192;28;20176;-55
2023/12/28 11:53:43;;;;;;;14.07;3.43;;;;;;;;;;5072887;28;20169;-58
2023/12/28 11:56:16;;;;;;;9.83;3.47;;;;;;;;;;5071882;28;20228;-56
2023/12/28 11:58:45;;;;;;;12.07;2.67;;;;;;;;;;5072519;28;20187;-52
2023/12/28 12:01:11;;;;;;;16.67;3.53;;;;;;;;;;5072891;28;20664;-54
2023/12/28 12:03:38;;;;;;;11.13;3.37;;;;;;;;;;5073996;28;20439;-56
2023/12/28 12:06:05;;;;;;;13.77;3.43;;;;;;;;;;5073101;28;20708;-55
2023/12/28 12:08:31;;;;;;;11.87;2.87;;;;;;;;;;5071844;28;20437;-54
2023/12/28 12:11:03;;;;;;;9.83;3.30;;;;;;;;;;5072650;28;20173;-56
2023/12/28 12:13:30;;;;;;;15.70;3.27;;;;;;;;;;5073919;28;20256;-56
2023/12/28 12:15:56;;;;;;;16.03;3.67;;;;;;;;;;5071474;28;20279;-52
2023/12/28 12:18:23;;;;;;;8.73;2.93;;;;;;;;;;5070625;28;20180;-54
2023/12/28 12:20:49;;;;;;;9.77;2.90;;;;;;;;;;5073041;28;20682;-52
2023/12/28 12:23:15;;;;;;;11.13;2.83;;;;;;;;;;5070346;28;20181;-55
2023/12/28 12:25:41;;;;;;;11.97;3.17;;;;;;;;;;5070360;28;20311;-56
2023/12/28 12:28:08;;;;;;;14.73;2.63;;;;;;;;;;5068225;28;20173;-56
2023/12/28 12:30:34;;;;;;;13.80;3.30;;;;;;;;;;5067909;28;20169;-54
2023/12/28 12:33:01;;;;;;;18.70;3.23;;;;;;;;;;5067684;28;20265;-52
2023/12/28 12:35:27;;;;;;;8.37;2.60;;;;;;;;;;5066920;28;20196;-51
2023/12/28 12:37:54;;;;;;;11.37;3.07;;;;;;;;;;5069573;28;20541;-55
2023/12/28 12:40:20;;;;;;;12.10;2.47;;;;;;;;;;5068727;28;20716;-54
2023/12/28 12:42:53;;;;;;;10.67;2.63;;;;;;;;;;5069463;28;20211;-56
2023/12/28 12:45:20;;;;;;;13.80;3.53;;;;;;;;;;5061399;28;20200;-54
2023/12/28 12:47:46;;;;;;;9.27;2.63;;;;;;;;;;5062084;28;20177;-52
2023/12/28 12:50:12;;;;;;;11.40;3.03;;;;;;;;;;5060429;28;20652;-55
2023/12/28 12:52:38;;;;;;;13.17;3.70;;;;;;;;;;5058855;28;20173;-53
2023/12/28 12:55:05;;;;;;;11.90;3.43;;;;;;;;;;5066294;28;20221;-54
2023/12/28 12:57:32;;;;;;;14.43;2.73;;;;;;;;;;5068900;28;20591;-53
2023/12/28 12:59:58;;;;;;;10.53;2.43;;;;;;;;;;5064869;28;20615;-56
2023/12/28 13:02:24;;;;;;;10.03;2.40;;;;;;;;;;5066939;28;20190;-52
2023/12/28 13:04:55;;;;;;;18.73;3.03;;;;;;;;;;5069056;28;20250;-51
2023/12/28 13:07:21;;;;;;;11.67;3.33;;;;;;;;;;5079494;28;20248;-49
2023/12/28 13:09:47;;;;;;;12.33;3.00;;;;;;;;;;5084312;28;20395;-53
2023/12/28 13:12:12;;;;;;;10.67;2.63;;;;;;;;;;5082861;28;20592;-53
2023/12/28 13:14:38;;;;;;;15.40;3.53;;;;;;;;;;5084636;28;20543;-51
2023/12/28 13:17:05;;;;;;;7.40;3.00;;;;;;;;;;5090877;28;20638;-52
2023/12/28 13:19:31;;;;;;;12.87;3.83;;;;;;;;;;5092362;28;20172;-55
2023/12/28 13:21:57;;;;;;;14.80;2.57;;;;;;;;;;5091231;28;20284;-53
2023/12/28 13:24:23;;;;;;;14.37;2.67;;;;;;;;;;5091165;28;20591;-56
2023/12/28 13:26:49;;;;;;;11.27;2.70;;;;;;;;;;5091112;28;20720;-53
2023/12/28 13:29:15;;;;;;;12.03;2.67;;;;;;;;;;5090881;28;20168;-56
2023/12/28 13:31:44;;;;;;;11.10;3.00;;;;;;;;;;5091164;28;20198;-55
2023/12/28 13:34:10;;;;;;;9.97;2.70;;;;;;;;;;5090724;28;20175;-56
2023/12/28 13:36:36;;;;;;;16.77;2.77;;;;;;;;;;5090346;28;20164;-53
2023/12/28 13:39:03;;;;;;;14.60;3.90;;;;;;;;;;5090737;28;20172;-54
2023/12/28 13:41:29;;;;;;;9.73;2.47;;;;;;;;;;5090585;28;20474;-52
2023/12/28 13:44:01;;;;;;;14.07;4.10;;;;;;;;;;5090298;28;20575;-52
2023/12/28 13:46:29;;;;;;;12.60;3.00;;;;;;;;;;5090767;28;20188;-55
2023/12/28 13:48:56;;;;;;;10.57;2.67;;;;;;;;;;5095646;28;20203;-53
2023/12/28 13:51:24;;;;;;;9.97;2.43;;;;;;;;;;5094725;28;20200;-55
2023/12/28 13:53:51;;;;;;;13.77;3.00;;;;;;;;;;5094643;28;20171;-57
2023/12/28 13:56:17;;;;;;;9.20;3.10;;;;;;;;;;5095163;28;20452;-53
2023/12/28 13:58:44;;;;;;;13.03;3.07;;;;;;;;;;5095002;28;20168;-50
2023/12/28 14:01:10;;;;;;;8.83;3.07;;;;;;;;;;5093933;28;20160;-54
2023/12/28 14:03:39;;;;;;;9.57;2.67;;;;;;;;;;5092854;28;20179;-56
2023/12/28 14:06:05;;;;;;;15.27;3.53;;;;;;;;;;5093551;28;20237;-56
2023/12/28 14:08:31;;;;;;;11.10;3.60;;;;;;;;;;5092017;28;20172;-53
2023/12/28 14:10:57;;;;;;;13.13;3.73;;;;;;;;;;5092303;28;20172;-56
2023/12/28 14:13:25;;;;;;;14.70;3.00;;;;;;;;;;5091792;28;20164;-54
2023/12/28 14:15:52;;;;;;;13.67;3.17;;;;;;;;;;5091710;28;20212;-56
2023/12/28 14:18:18;;;;;;;15.23;3.70;;;;;;;;;;5091520;28;20346;-52
2023/12/28 14:20:45;;;;;;;19.00;2.90;;;;;;;;;;5094159;28;20174;-53
2023/12/28 14:23:12;;;;;;;13.40;3.10;;;;;;;;;;5093017;28;20172;-53
2023/12/28 14:25:38;;;;;;;13.00;3.47;;;;;;;;;;5092039;28;20562;-54
2023/12/28 14:28:04;;;;;;;11.27;3.60;;;;;;;;;;5092145;28;20179;-56
2023/12/28 14:30:31;;;;;;;15.53;4.63;;;;;;;;;;5092234;28;20253;-53
2023/12/28 14:32:57;;;;;;;10.93;2.60;;;;;;;;;;5092257;28;20168;-55
2023/12/28 14:35:25;;;;;;;11.33;3.93;;;;;;;;;;5090483;28;20172;-57
2023/12/28 14:37:52;;;;;;;16.43;4.27;;;;;;;;;;5092469;28;20227;-53
2023/12/28 14:40:18;;;;;;;8.83;3.07;;;;;;;;;;5092670;28;20187;-56